トロンハイム の空港の天気 - METARとTAF

Trondheim / Vaernes ( ENVA / TRD ) - ノルウェー ヌール・トロンデラーグ県、Stjordal
飛行場実況気象(Metar)
観測時間08/05 00:20 CEST (08/04 22:20 UTC)
風向・風速南東 3m/s
視程10km以上
天気現象
なし
気温12℃
湿度94%
気圧1008hPa
METARENVA 042220Z 13006KT CAVOK 12/11 Q1008 RMK WIND 670FT 11004KT
過去の天気等 Google飛行場航空写真 Wunderground天気予報

過去48時間のMETAR

飛行場予報(TAF)
発表時間: -
4日20時 CEST ~ 4日23時 CEST に 確率 30% で一時的に
天気現象しゅう雨
全天の4割程度の積乱雲 雲底高度 910m
5日8時 CEST ~ 5日11時 CEST に徐々に
風向・風速南東 5m/s
5日12時 CEST ~ 5日17時 CEST に一時的に
風向・風速南南東 8m/s 瞬間風速 13m/s
5日17時 CEST ~ 5日20時 CEST に一時的に
天気現象
TAF ENVA 0418/0518 VRB03KT 9999 FEW030 BKN070
PROB30 TEMPO 0418/0421 SHRA SCT030CB
BECMG 0506/0509 14010KT
TEMPO 0510/0515 16015G25KT
TEMPO 0515/0518 RA